Time;durP1;ratioP1;P1;durP2;ratioP2;P2;SDS_P1;SDS_P2;PMS_P1;PMS_P2;Temp;Humidity;BMP_temperature;BMP_pressure;BME280_temperature;BME280_humidity;BME280_pressure;Samples;Min_cycle;Max_cycle;Signal;HPM_P1;HPM_P2
2021/09/16 00:00:11;;;;;;;34.05;16.95;;;;;;;;;;5054120;28;20067;-58
2021/09/16 00:03:00;;;;;;;29.13;17.20;;;;;;;;;;5053424;28;20406;-57
2021/09/16 00:05:27;;;;;;;28.20;17.25;;;;;;;;;;5068017;28;20044;-58
2021/09/16 00:07:53;;;;;;;30.35;16.13;;;;;;;;;;5057389;28;20045;-58
2021/09/16 00:10:20;;;;;;;30.67;16.42;;;;;;;;;;5057208;28;20040;-57
2021/09/16 00:12:46;;;;;;;30.88;16.35;;;;;;;;;;5056767;28;20079;-58
2021/09/16 00:15:13;;;;;;;32.83;15.52;;;;;;;;;;5054053;28;20044;-58
2021/09/16 00:17:40;;;;;;;30.33;16.88;;;;;;;;;;5054192;28;20060;-57
2021/09/16 00:20:07;;;;;;;33.55;16.75;;;;;;;;;;5056900;28;20486;-57
2021/09/16 00:22:33;;;;;;;27.52;16.08;;;;;;;;;;5056476;28;20045;-57
2021/09/16 00:24:59;;;;;;;30.40;16.85;;;;;;;;;;5056892;28;20044;-57
2021/09/16 00:27:26;;;;;;;27.73;16.00;;;;;;;;;;5055965;28;20473;-57
2021/09/16 00:29:52;;;;;;;29.58;16.95;;;;;;;;;;5053798;28;20388;-57
2021/09/16 00:32:18;;;;;;;27.80;15.50;;;;;;;;;;5067396;28;20078;-58
2021/09/16 00:34:45;;;;;;;29.65;16.05;;;;;;;;;;5059714;28;20049;-57
2021/09/16 00:37:11;;;;;;;30.45;16.05;;;;;;;;;;5060787;28;20102;-58
2021/09/16 00:39:37;;;;;;;26.83;16.02;;;;;;;;;;5060745;28;20040;-58
2021/09/16 00:42:04;;;;;;;30.65;15.95;;;;;;;;;;5056677;28;20056;-57
2021/09/16 00:44:30;;;;;;;23.65;14.70;;;;;;;;;;5060480;28;20060;-57
2021/09/16 00:46:56;;;;;;;35.63;17.40;;;;;;;;;;5060539;28;20045;-58
2021/09/16 00:49:23;;;;;;;32.13;16.48;;;;;;;;;;5060883;28;20513;-58
2021/09/16 00:51:49;;;;;;;30.50;16.48;;;;;;;;;;5067885;28;20048;-57
2021/09/16 00:54:18;;;;;;;28.40;16.63;;;;;;;;;;5058105;28;20099;-57
2021/09/16 00:56:47;;;;;;;33.60;17.73;;;;;;;;;;5057821;28;20103;-57
2021/09/16 00:59:15;;;;;;;28.35;15.30;;;;;;;;;;5059922;28;20041;-57
2021/09/16 01:01:41;;;;;;;28.17;16.38;;;;;;;;;;5060724;28;20041;-58
2021/09/16 01:04:07;;;;;;;27.85;16.70;;;;;;;;;;5060433;28;20045;-57
2021/09/16 01:06:35;;;;;;;31.20;16.73;;;;;;;;;;5060119;28;20045;-58
2021/09/16 01:09:01;;;;;;;31.02;16.52;;;;;;;;;;5056135;28;20043;-57
2021/09/16 01:11:28;;;;;;;26.63;16.83;;;;;;;;;;5071751;28;20106;-58
2021/09/16 01:13:56;;;;;;;28.83;18.08;;;;;;;;;;5060551;28;20049;-57
2021/09/16 01:16:23;;;;;;;30.25;18.08;;;;;;;;;;5060043;28;20171;-58
2021/09/16 01:18:49;;;;;;;30.13;17.17;;;;;;;;;;5061851;28;20049;-58
2021/09/16 01:21:16;;;;;;;29.70;18.00;;;;;;;;;;5057228;28;20060;-57
2021/09/16 01:23:42;;;;;;;30.38;16.85;;;;;;;;;;5057505;28;20486;-58
2021/09/16 01:26:08;;;;;;;33.13;18.15;;;;;;;;;;5059984;28;20384;-58
2021/09/16 01:28:35;;;;;;;28.13;16.80;;;;;;;;;;5060160;28;20048;-58
2021/09/16 01:31:01;;;;;;;31.95;17.70;;;;;;;;;;5060460;28;20036;-58
2021/09/16 01:33:27;;;;;;;29.92;17.08;;;;;;;;;;5059371;28;20068;-58
2021/09/16 01:35:54;;;;;;;29.70;17.05;;;;;;;;;;5056566;28;20041;-58
2021/09/16 01:38:20;;;;;;;30.83;17.73;;;;;;;;;;5060098;28;20049;-58
2021/09/16 01:40:46;;;;;;;31.23;17.38;;;;;;;;;;5060094;28;20077;-58
2021/09/16 01:43:13;;;;;;;26.05;16.40;;;;;;;;;;5060218;28;20045;-58
2021/09/16 01:45:39;;;;;;;36.65;18.17;;;;;;;;;;5059551;28;20052;-58
2021/09/16 01:48:05;;;;;;;32.00;17.58;;;;;;;;;;5056106;28;20056;-58
2021/09/16 01:50:32;;;;;;;29.95;16.40;;;;;;;;;;5071375;28;20040;-57
2021/09/16 01:52:58;;;;;;;31.05;16.90;;;;;;;;;;5069156;28;20041;-58
2021/09/16 01:55:25;;;;;;;29.08;16.85;;;;;;;;;;5064305;28;20083;-58
2021/09/16 01:57:51;;;;;;;31.15;16.92;;;;;;;;;;5059748;28;20040;-57
2021/09/16 02:00:18;;;;;;;32.22;16.83;;;;;;;;;;5057577;28;20119;-58
2021/09/16 02:02:44;;;;;;;30.35;18.42;;;;;;;;;;5057275;28;20501;-58
2021/09/16 02:05:11;;;;;;;30.05;17.05;;;;;;;;;;5059429;28;20044;-58
2021/09/16 02:07:39;;;;;;;29.77;16.88;;;;;;;;;;5059580;28;20045;-57
2021/09/16 02:10:06;;;;;;;33.60;18.30;;;;;;;;;;5059748;28;20041;-57
2021/09/16 02:12:33;;;;;;;30.70;17.48;;;;;;;;;;5059222;28;20052;-58
2021/09/16 02:14:59;;;;;;;30.58;17.88;;;;;;;;;;5055331;28;20129;-58
2021/09/16 02:17:26;;;;;;;33.88;17.63;;;;;;;;;;5059067;28;20080;-57
2021/09/16 02:19:52;;;;;;;33.35;17.85;;;;;;;;;;5059397;28;20060;-57
2021/09/16 02:22:18;;;;;;;34.60;18.35;;;;;;;;;;5059415;28;20072;-58
2021/09/16 02:24:45;;;;;;;32.90;16.95;;;;;;;;;;5059538;28;20123;-57
2021/09/16 02:27:11;;;;;;;32.17;18.33;;;;;;;;;;5056432;28;20045;-57
2021/09/16 02:29:38;;;;;;;34.50;18.80;;;;;;;;;;5070393;28;20144;-57
2021/09/16 02:32:05;;;;;;;31.13;17.92;;;;;;;;;;5069080;28;20090;-57
2021/09/16 02:34:31;;;;;;;33.72;18.65;;;;;;;;;;5062988;28;20069;-58
2021/09/16 02:36:57;;;;;;;32.03;19.10;;;;;;;;;;5059035;28;20048;-58
2021/09/16 02:39:24;;;;;;;32.35;17.50;;;;;;;;;;5057846;28;20052;-57
2021/09/16 02:41:50;;;;;;;33.85;18.67;;;;;;;;;;5055804;28;20494;-58
2021/09/16 02:44:16;;;;;;;34.78;18.33;;;;;;;;;;5058561;28;20053;-58
2021/09/16 02:46:43;;;;;;;30.75;18.65;;;;;;;;;;5058927;28;20049;-58
2021/09/16 02:49:09;;;;;;;35.00;18.98;;;;;;;;;;5059037;28;20041;-57
2021/09/16 02:51:36;;;;;;;34.03;18.83;;;;;;;;;;5058807;28;20048;-58
2021/09/16 02:54:02;;;;;;;33.53;19.42;;;;;;;;;;5054596;28;20068;-58
2021/09/16 02:56:28;;;;;;;34.42;20.08;;;;;;;;;;5069600;28;20502;-58
2021/09/16 02:58:54;;;;;;;37.67;19.83;;;;;;;;;;5058881;28;20441;-57
2021/09/16 03:01:21;;;;;;;36.83;19.77;;;;;;;;;;5058859;28;20538;-57
2021/09/16 03:03:47;;;;;;;32.85;17.55;;;;;;;;;;5058731;28;20490;-58
2021/09/16 03:06:13;;;;;;;36.72;19.98;;;;;;;;;;5055677;28;20064;-57
2021/09/16 03:08:40;;;;;;;35.35;19.67;;;;;;;;;;5069724;28;20521;-58
2021/09/16 03:11:06;;;;;;;34.95;19.55;;;;;;;;;;5058525;28;20113;-57
2021/09/16 03:13:33;;;;;;;33.40;19.02;;;;;;;;;;5058281;28;20080;-58
2021/09/16 03:15:59;;;;;;;36.05;20.17;;;;;;;;;;5059718;28;20037;-58
2021/09/16 03:18:25;;;;;;;35.28;21.42;;;;;;;;;;5069516;28;20049;-58
2021/09/16 03:20:52;;;;;;;35.25;20.35;;;;;;;;;;5054713;28;20061;-58
2021/09/16 03:23:18;;;;;;;39.13;20.33;;;;;;;;;;5057223;28;20491;-58
2021/09/16 03:25:44;;;;;;;39.88;21.63;;;;;;;;;;5057339;28;20522;-58
2021/09/16 03:28:10;;;;;;;39.25;21.70;;;;;;;;;;5057687;28;20052;-58
2021/09/16 03:30:37;;;;;;;41.47;22.13;;;;;;;;;;5057524;28;20125;-58
2021/09/16 03:33:03;;;;;;;32.75;19.60;;;;;;;;;;5053542;28;20050;-57
2021/09/16 03:35:30;;;;;;;32.13;19.85;;;;;;;;;;5057056;28;20099;-58
2021/09/16 03:37:56;;;;;;;39.40;21.00;;;;;;;;;;5057843;28;20076;-58
2021/09/16 03:40:23;;;;;;;35.28;19.52;;;;;;;;;;5057904;28;20399;-58
2021/09/16 03:42:52;;;;;;;36.50;20.73;;;;;;;;;;5057884;28;20036;-58
2021/09/16 03:45:19;;;;;;;33.90;19.70;;;;;;;;;;5055143;28;20048;-57
2021/09/16 03:47:45;;;;;;;36.33;21.25;;;;;;;;;;5069730;28;20045;-57
2021/09/16 03:50:12;;;;;;;34.42;20.65;;;;;;;;;;5057254;28;20044;-58
2021/09/16 03:52:38;;;;;;;36.58;20.83;;;;;;;;;;5057704;28;20044;-58
2021/09/16 03:55:05;;;;;;;39.90;20.52;;;;;;;;;;5057472;28;20045;-58
2021/09/16 03:57:31;;;;;;;37.20;21.13;;;;;;;;;;5057106;28;20071;-58
2021/09/16 03:59:58;;;;;;;34.88;22.00;;;;;;;;;;5053500;28;20163;-58
2021/09/16 04:02:24;;;;;;;34.40;21.33;;;;;;;;;;5057286;28;20048;-57
2021/09/16 04:04:50;;;;;;;39.63;21.20;;;;;;;;;;5057473;28;20052;-58
2021/09/16 04:07:17;;;;;;;33.55;21.52;;;;;;;;;;5057576;28;20407;-57
2021/09/16 04:09:43;;;;;;;33.67;20.80;;;;;;;;;;5056721;28;20044;-57
2021/09/16 04:12:09;;;;;;;33.25;20.60;;;;;;;;;;5053856;28;20047;-58
2021/09/16 04:14:36;;;;;;;36.45;20.73;;;;;;;;;;5055706;28;20081;-57
2021/09/16 04:17:02;;;;;;;35.53;20.58;;;;;;;;;;5057831;28;20550;-58
2021/09/16 04:19:28;;;;;;;37.50;21.58;;;;;;;;;;5057579;28;20045;-58
2021/09/16 04:21:55;;;;;;;36.60;20.65;;;;;;;;;;5057096;28;20088;-58
2021/09/16 04:24:21;;;;;;;39.90;21.67;;;;;;;;;;5054329;28;20048;-58
2021/09/16 04:26:47;;;;;;;37.63;21.98;;;;;;;;;;5051218;28;20041;-58
2021/09/16 04:29:14;;;;;;;44.78;21.15;;;;;;;;;;5068156;28;20114;-58
2021/09/16 04:31:41;;;;;;;35.45;21.40;;;;;;;;;;5059834;28;20406;-58
2021/09/16 04:34:07;;;;;;;39.30;21.83;;;;;;;;;;5056966;28;20052;-58
2021/09/16 04:36:34;;;;;;;35.35;21.05;;;;;;;;;;5056936;28;20040;-58
2021/09/16 04:39:01;;;;;;;34.13;20.30;;;;;;;;;;5053180;28;20052;-57
2021/09/16 04:41:27;;;;;;;36.55;21.85;;;;;;;;;;5066805;28;20045;-57
2021/09/16 04:43:53;;;;;;;39.20;21.38;;;;;;;;;;5057803;28;20124;-58
2021/09/16 04:46:20;;;;;;;43.08;22.75;;;;;;;;;;5057128;28;20041;-58
2021/09/16 04:48:46;;;;;;;34.80;19.50;;;;;;;;;;5056981;28;20050;-58
2021/09/16 04:51:13;;;;;;;45.20;21.98;;;;;;;;;;5054020;28;20104;-58
2021/09/16 04:53:39;;;;;;;36.15;22.35;;;;;;;;;;5054659;28;20045;-57
2021/09/16 04:56:05;;;;;;;43.08;22.98;;;;;;;;;;5066495;28;20110;-57
2021/09/16 04:58:32;;;;;;;36.72;21.83;;;;;;;;;;5066305;28;20144;-58
2021/09/16 05:00:58;;;;;;;38.20;22.95;;;;;;;;;;5065104;28;20048;-57
2021/09/16 05:03:24;;;;;;;40.30;22.63;;;;;;;;;;5054143;28;20071;-57
2021/09/16 05:05:51;;;;;;;37.47;21.30;;;;;;;;;;5068807;28;20444;-57
2021/09/16 05:08:17;;;;;;;41.15;22.35;;;;;;;;;;5056580;28;20064;-57
2021/09/16 05:10:44;;;;;;;37.30;20.80;;;;;;;;;;5056845;28;20124;-57
2021/09/16 05:13:10;;;;;;;41.47;23.17;;;;;;;;;;5056927;28;20138;-57
2021/09/16 05:15:37;;;;;;;35.20;21.10;;;;;;;;;;5056912;28;20043;-58
2021/09/16 05:18:03;;;;;;;35.35;21.38;;;;;;;;;;5058180;28;20052;-58
2021/09/16 05:20:29;;;;;;;36.85;21.30;;;;;;;;;;5058686;28;20063;-57
2021/09/16 05:22:56;;;;;;;38.85;21.98;;;;;;;;;;5060683;28;20064;-58
2021/09/16 05:25:22;;;;;;;39.60;21.90;;;;;;;;;;5060369;28;20548;-57
2021/09/16 05:27:49;;;;;;;35.30;22.60;;;;;;;;;;5059114;28;20115;-58
2021/09/16 05:30:15;;;;;;;36.20;20.48;;;;;;;;;;5068758;28;20075;-57
2021/09/16 05:32:41;;;;;;;32.25;21.00;;;;;;;;;;5058090;28;20429;-57
2021/09/16 05:35:08;;;;;;;42.10;21.85;;;;;;;;;;5069556;28;20098;-56
2021/09/16 05:37:35;;;;;;;35.90;21.08;;;;;;;;;;5062896;28;20135;-56
2021/09/16 05:40:01;;;;;;;39.92;22.05;;;;;;;;;;5067024;28;20387;-56
2021/09/16 05:42:27;;;;;;;43.90;22.88;;;;;;;;;;5064201;28;20067;-56
2021/09/16 05:44:54;;;;;;;40.00;22.63;;;;;;;;;;5067065;28;20140;-56
2021/09/16 05:47:20;;;;;;;39.65;21.15;;;;;;;;;;5069937;28;20402;-56
2021/09/16 05:49:47;;;;;;;38.88;22.63;;;;;;;;;;5062244;28;20083;-56
2021/09/16 05:52:13;;;;;;;40.92;22.58;;;;;;;;;;5065936;28;20055;-56
2021/09/16 05:54:39;;;;;;;34.85;19.77;;;;;;;;;;5066428;28;20037;-56
2021/09/16 05:57:06;;;;;;;39.10;22.10;;;;;;;;;;5071258;28;20064;-56
2021/09/16 05:59:32;;;;;;;41.10;22.90;;;;;;;;;;5062373;28;20079;-56
2021/09/16 06:01:59;;;;;;;40.35;23.60;;;;;;;;;;5058364;28;20624;-56
2021/09/16 06:04:25;;;;;;;35.40;21.48;;;;;;;;;;5064941;28;20522;-56
2021/09/16 06:06:52;;;;;;;37.13;20.92;;;;;;;;;;5060513;28;20091;-56
2021/09/16 06:09:18;;;;;;;35.58;21.13;;;;;;;;;;5058866;28;20045;-56
2021/09/16 06:11:44;;;;;;;33.63;20.33;;;;;;;;;;5068286;28;20410;-56
2021/09/16 06:14:11;;;;;;;33.63;21.15;;;;;;;;;;5068838;28;20040;-56
2021/09/16 06:16:37;;;;;;;38.92;22.45;;;;;;;;;;5066524;28;20052;-56
2021/09/16 06:19:04;;;;;;;34.58;21.15;;;;;;;;;;5063111;28;20518;-56
2021/09/16 06:21:30;;;;;;;35.08;21.63;;;;;;;;;;5063901;28;20091;-57
2021/09/16 06:23:56;;;;;;;33.70;21.10;;;;;;;;;;5063616;28;20052;-56
2021/09/16 06:26:23;;;;;;;36.13;22.05;;;;;;;;;;5067731;28;20059;-57
2021/09/16 06:28:50;;;;;;;33.25;21.10;;;;;;;;;;5063759;28;20482;-56
2021/09/16 06:31:16;;;;;;;32.00;20.42;;;;;;;;;;5061680;28;20506;-56
2021/09/16 06:33:43;;;;;;;36.08;21.65;;;;;;;;;;5064685;28;20144;-56
2021/09/16 06:36:09;;;;;;;39.42;22.80;;;;;;;;;;5064276;28;20498;-56
2021/09/16 06:38:35;;;;;;;35.80;21.40;;;;;;;;;;5066331;28;20045;-55
2021/09/16 06:41:02;;;;;;;35.35;21.13;;;;;;;;;;5063389;28;20462;-55
2021/09/16 06:43:28;;;;;;;39.78;21.70;;;;;;;;;;5069420;28;20502;-55
2021/09/16 06:45:54;;;;;;;35.88;20.15;;;;;;;;;;5066164;28;20045;-55
2021/09/16 06:48:21;;;;;;;33.15;20.27;;;;;;;;;;5062319;28;20815;-54
2021/09/16 06:50:47;;;;;;;34.45;20.45;;;;;;;;;;5055388;28;20124;-55
2021/09/16 06:53:14;;;;;;;31.00;20.58;;;;;;;;;;5057601;28;20124;-55
2021/09/16 06:55:40;;;;;;;31.50;20.40;;;;;;;;;;5056641;28;20088;-55
2021/09/16 06:58:07;;;;;;;37.88;20.80;;;;;;;;;;5055873;28;20040;-54
2021/09/16 07:00:33;;;;;;;37.35;20.23;;;;;;;;;;5053337;28;20045;-54
2021/09/16 07:02:59;;;;;;;39.65;20.48;;;;;;;;;;5067804;28;20075;-55
2021/09/16 07:05:26;;;;;;;35.00;18.98;;;;;;;;;;5055367;28;20060;-55
2021/09/16 07:07:52;;;;;;;36.22;20.63;;;;;;;;;;5056216;28;20053;-55
2021/09/16 07:10:19;;;;;;;30.15;19.13;;;;;;;;;;5057537;28;20120;-55
2021/09/16 07:12:45;;;;;;;29.17;18.35;;;;;;;;;;5067858;28;20048;-55
2021/09/16 07:15:12;;;;;;;35.10;20.52;;;;;;;;;;5054813;28;20032;-56
2021/09/16 07:17:38;;;;;;;33.13;19.25;;;;;;;;;;5055189;28;20411;-55
2021/09/16 07:20:05;;;;;;;35.63;19.92;;;;;;;;;;5057559;28;20040;-56
2021/09/16 07:22:31;;;;;;;29.63;19.67;;;;;;;;;;5064129;28;20090;-56
2021/09/16 07:24:58;;;;;;;31.65;18.30;;;;;;;;;;5066296;28;20127;-55
2021/09/16 07:27:24;;;;;;;30.95;19.77;;;;;;;;;;5055844;28;20060;-56
2021/09/16 07:29:51;;;;;;;32.70;19.48;;;;;;;;;;5053536;28;20049;-56
2021/09/16 07:32:18;;;;;;;30.95;19.58;;;;;;;;;;5068024;28;20084;-56
2021/09/16 07:34:44;;;;;;;32.78;19.40;;;;;;;;;;5059138;28;20049;-57
2021/09/16 07:37:10;;;;;;;27.30;18.25;;;;;;;;;;5057558;28;20040;-56
2021/09/16 07:39:37;;;;;;;29.05;18.10;;;;;;;;;;5054595;28;20091;-56
2021/09/16 07:42:03;;;;;;;33.67;18.35;;;;;;;;;;5068960;28;20094;-56
2021/09/16 07:44:30;;;;;;;26.98;17.00;;;;;;;;;;5067159;28;20048;-58
2021/09/16 07:46:56;;;;;;;30.50;17.20;;;;;;;;;;5057297;28;20073;-56
2021/09/16 07:49:22;;;;;;;29.73;16.83;;;;;;;;;;5056940;28;20207;-55
2021/09/16 07:51:49;;;;;;;31.20;16.33;;;;;;;;;;5056917;28;20048;-56
2021/09/16 07:54:15;;;;;;;28.25;16.23;;;;;;;;;;5054134;28;20098;-58
2021/09/16 07:56:42;;;;;;;27.33;16.42;;;;;;;;;;5054530;28;20162;-55
2021/09/16 07:59:09;;;;;;;26.48;16.55;;;;;;;;;;5057373;28;20044;-55
2021/09/16 08:01:35;;;;;;;26.25;17.00;;;;;;;;;;5056421;28;20072;-56
2021/09/16 08:04:05;;;;;;;28.92;17.73;;;;;;;;;;5056753;28;20051;-56
2021/09/16 08:06:32;;;;;;;30.27;17.45;;;;;;;;;;5056288;28;20521;-56
2021/09/16 08:08:58;;;;;;;28.85;16.45;;;;;;;;;;5052866;28;20495;-56
2021/09/16 08:11:26;;;;;;;26.00;16.58;;;;;;;;;;5055973;28;20053;-56
2021/09/16 08:13:52;;;;;;;26.40;16.10;;;;;;;;;;5057460;28;20059;-56
2021/09/16 08:16:19;;;;;;;24.02;15.48;;;;;;;;;;5056280;28;20049;-55
2021/09/16 08:18:46;;;;;;;24.77;16.50;;;;;;;;;;5055036;28;20494;-56
2021/09/16 08:21:14;;;;;;;24.88;16.25;;;;;;;;;;5068096;28;20490;-56
2021/09/16 08:23:41;;;;;;;23.25;16.23;;;;;;;;;;5053946;28;20135;-56
2021/09/16 08:26:07;;;;;;;25.02;15.77;;;;;;;;;;5056665;28;20055;-56
2021/09/16 08:28:37;;;;;;;27.00;16.63;;;;;;;;;;5056745;28;20079;-56
2021/09/16 08:31:04;;;;;;;21.40;15.18;;;;;;;;;;5056509;28;20439;-56
2021/09/16 08:33:30;;;;;;;27.75;16.20;;;;;;;;;;5055675;28;20037;-57
2021/09/16 08:35:56;;;;;;;25.83;16.98;;;;;;;;;;5052662;28;20053;-55
2021/09/16 08:38:23;;;;;;;22.90;15.25;;;;;;;;;;5056411;28;20049;-56
2021/09/16 08:40:50;;;;;;;24.88;16.45;;;;;;;;;;5061653;28;20517;-57
2021/09/16 08:43:19;;;;;;;23.40;15.57;;;;;;;;;;5062228;28;20045;-56
2021/09/16 08:45:47;;;;;;;25.33;16.27;;;;;;;;;;5056523;28;20056;-57
2021/09/16 08:48:14;;;;;;;23.85;16.23;;;;;;;;;;5053159;28;20410;-56
2021/09/16 08:50:41;;;;;;;27.67;16.30;;;;;;;;;;5054034;28;20045;-57
2021/09/16 08:53:07;;;;;;;21.83;16.02;;;;;;;;;;5066665;28;20052;-56
2021/09/16 08:55:34;;;;;;;25.05;16.15;;;;;;;;;;5065249;28;20068;-57
2021/09/16 08:58:01;;;;;;;28.35;15.43;;;;;;;;;;5068209;28;20510;-56
2021/09/16 09:00:29;;;;;;;30.33;16.80;;;;;;;;;;5059285;28;20510;-56
2021/09/16 09:02:56;;;;;;;22.80;16.05;;;;;;;;;;5056510;28;20133;-56
2021/09/16 09:05:23;;;;;;;25.52;16.30;;;;;;;;;;5059929;28;20049;-57
2021/09/16 09:07:53;;;;;;;24.17;15.45;;;;;;;;;;5060236;28;20083;-56
2021/09/16 09:10:35;;;;;;;22.40;16.05;;;;;;;;;;5059925;28;20498;-57
2021/09/16 09:13:02;;;;;;;34.28;17.05;;;;;;;;;;5060242;28;20049;-57
2021/09/16 09:15:28;;;;;;;23.65;15.70;;;;;;;;;;5058814;28;20513;-56
2021/09/16 09:18:05;;;;;;;25.70;16.85;;;;;;;;;;5056472;28;20123;-56
2021/09/16 09:20:32;;;;;;;28.73;15.57;;;;;;;;;;5070890;28;20057;-57
2021/09/16 09:22:58;;;;;;;25.40;15.35;;;;;;;;;;5059892;28;20053;-57
2021/09/16 09:25:25;;;;;;;20.92;15.45;;;;;;;;;;5059789;28;20153;-56
2021/09/16 09:27:53;;;;;;;25.38;16.45;;;;;;;;;;5066479;28;20072;-57
2021/09/16 09:30:21;;;;;;;25.08;16.13;;;;;;;;;;5057344;28;20064;-56
2021/09/16 09:32:59;;;;;;;26.52;16.20;;;;;;;;;;5056980;28;20368;-56
2021/09/16 09:35:26;;;;;;;23.92;14.82;;;;;;;;;;5059134;28;20076;-57
2021/09/16 09:37:52;;;;;;;23.83;15.40;;;;;;;;;;5067379;28;20040;-56
2021/09/16 09:40:26;;;;;;;21.25;15.45;;;;;;;;;;5065064;28;20133;-57
2021/09/16 09:42:53;;;;;;;29.73;15.35;;;;;;;;;;5057785;28;20773;-57
2021/09/16 09:45:19;;;;;;;22.02;15.63;;;;;;;;;;5057304;28;20037;-57
2021/09/16 09:47:47;;;;;;;21.58;15.85;;;;;;;;;;5056820;28;20048;-58
2021/09/16 09:50:19;;;;;;;23.60;15.30;;;;;;;;;;5059597;28;20069;-58
2021/09/16 09:52:46;;;;;;;23.08;14.73;;;;;;;;;;5066414;28;20032;-56
2021/09/16 09:55:14;;;;;;;25.35;14.57;;;;;;;;;;5065601;28;20045;-57
2021/09/16 09:57:40;;;;;;;23.27;16.13;;;;;;;;;;5059715;28;20076;-57
2021/09/16 10:00:07;;;;;;;25.23;15.45;;;;;;;;;;5055616;28;20041;-57
2021/09/16 10:02:39;;;;;;;23.17;14.73;;;;;;;;;;5057618;28;20399;-57
2021/09/16 10:05:26;;;;;;;30.65;16.55;;;;;;;;;;5069131;28;20056;-58
2021/09/16 10:07:54;;;;;;;26.42;15.23;;;;;;;;;;5058812;28;20055;-57
2021/09/16 10:10:21;;;;;;;26.40;15.65;;;;;;;;;;5059609;28;20072;-57
2021/09/16 10:12:48;;;;;;;23.20;15.10;;;;;;;;;;5059242;28;20399;-57
2021/09/16 10:15:16;;;;;;;21.88;15.35;;;;;;;;;;5056652;28;20418;-57
2021/09/16 10:17:42;;;;;;;21.85;15.95;;;;;;;;;;5070612;28;20045;-57
2021/09/16 10:20:10;;;;;;;22.10;15.20;;;;;;;;;;5059233;28;20041;-57
2021/09/16 10:22:38;;;;;;;24.63;15.82;;;;;;;;;;5059275;28;20154;-57
2021/09/16 10:25:06;;;;;;;24.73;16.23;;;;;;;;;;5059118;28;20060;-57
2021/09/16 10:27:37;;;;;;;26.13;15.27;;;;;;;;;;5058423;28;20079;-57
2021/09/16 10:30:21;;;;;;;25.75;15.25;;;;;;;;;;5060234;28;20455;-57
2021/09/16 10:33:02;;;;;;;25.10;15.07;;;;;;;;;;5071003;28;20521;-57
2021/09/16 10:35:28;;;;;;;23.35;14.77;;;;;;;;;;5058666;28;20057;-57
2021/09/16 10:37:55;;;;;;;22.85;14.13;;;;;;;;;;5059053;28;20124;-57
2021/09/16 10:40:21;;;;;;;24.30;15.13;;;;;;;;;;5062056;28;20041;-57
2021/09/16 10:42:49;;;;;;;23.00;15.38;;;;;;;;;;5058627;28;20135;-57
2021/09/16 10:45:25;;;;;;;21.92;15.05;;;;;;;;;;5056050;28;20072;-57
2021/09/16 10:48:11;;;;;;;21.80;14.32;;;;;;;;;;5056349;28;20147;-58
2021/09/16 10:50:44;;;;;;;20.58;14.38;;;;;;;;;;5070068;28;20522;-57
2021/09/16 10:53:42;;;;;;;21.60;14.88;;;;;;;;;;5059383;28;20091;-57
2021/09/16 10:56:45;;;;;;;24.77;13.73;;;;;;;;;;5030974;28;20049;-57
2021/09/16 10:59:11;;;;;;;21.55;13.15;;;;;;;;;;4934349;29;20055;-57
2021/09/16 11:01:53;;;;;;;21.17;14.10;;;;;;;;;;4933328;29;20185;-57
2021/09/16 11:04:20;;;;;;;23.60;16.05;;;;;;;;;;4932729;29;20048;-58
2021/09/16 11:06:47;;;;;;;20.67;14.77;;;;;;;;;;4917462;29;20139;-58
2021/09/16 11:09:13;;;;;;;22.00;15.20;;;;;;;;;;4932315;29;20048;-57
2021/09/16 11:11:48;;;;;;;20.65;13.93;;;;;;;;;;4933443;29;20481;-57
2021/09/16 11:14:25;;;;;;;25.65;15.20;;;;;;;;;;4934256;29;20083;-57
2021/09/16 11:16:55;;;;;;;20.75;15.07;;;;;;;;;;4932834;29;20059;-58
2021/09/16 11:19:22;;;;;;;22.27;15.55;;;;;;;;;;4933060;29;20545;-58
2021/09/16 11:22:02;;;;;;;22.10;15.30;;;;;;;;;;4932752;29;20147;-57
2021/09/16 11:24:33;;;;;;;24.10;15.13;;;;;;;;;;4932797;29;20119;-58
2021/09/16 11:26:59;;;;;;;31.17;15.32;;;;;;;;;;4932863;29;20126;-57
2021/09/16 11:29:25;;;;;;;22.10;15.13;;;;;;;;;;4934029;29;20052;-58
2021/09/16 11:32:04;;;;;;;25.00;14.63;;;;;;;;;;4964533;28;20552;-58
2021/09/16 11:34:30;;;;;;;19.30;13.52;;;;;;;;;;5058063;28;20432;-58
2021/09/16 11:37:07;;;;;;;20.48;13.38;;;;;;;;;;5058096;28;20084;-57
2021/09/16 11:39:34;;;;;;;19.55;13.55;;;;;;;;;;5069531;28;20502;-57
2021/09/16 11:42:11;;;;;;;22.83;14.02;;;;;;;;;;5053513;28;20491;-57
2021/09/16 11:44:53;;;;;;;29.10;14.55;;;;;;;;;;5068951;28;20372;-58
2021/09/16 11:47:20;;;;;;;17.25;12.45;;;;;;;;;;5057319;28;20076;-58
2021/09/16 11:49:46;;;;;;;20.17;12.80;;;;;;;;;;5065978;28;20048;-58
2021/09/16 11:52:17;;;;;;;18.30;12.13;;;;;;;;;;5067212;28;20413;-58
2021/09/16 11:55:01;;;;;;;20.58;13.98;;;;;;;;;;5067917;28;20060;-58
2021/09/16 11:57:27;;;;;;;18.87;13.70;;;;;;;;;;5070146;28;20094;-58
2021/09/16 11:59:54;;;;;;;17.35;12.85;;;;;;;;;;5067948;28;20553;-58
2021/09/16 12:02:20;;;;;;;22.13;12.10;;;;;;;;;;5065641;28;20090;-58
2021/09/16 12:04:46;;;;;;;20.42;13.25;;;;;;;;;;5068350;28;20109;-58
2021/09/16 12:07:16;;;;;;;17.10;12.02;;;;;;;;;;5068429;28;20119;-58
2021/09/16 12:09:43;;;;;;;18.95;12.60;;;;;;;;;;5068207;28;20457;-57
2021/09/16 12:12:09;;;;;;;17.77;12.68;;;;;;;;;;5068758;28;20487;-58
2021/09/16 12:14:36;;;;;;;16.85;12.50;;;;;;;;;;5056081;28;20116;-58
2021/09/16 12:17:03;;;;;;;18.02;12.57;;;;;;;;;;5057889;28;20094;-58
2021/09/16 12:19:30;;;;;;;18.98;13.77;;;;;;;;;;5057306;28;20033;-57
2021/09/16 12:21:57;;;;;;;17.77;12.55;;;;;;;;;;5062870;28;20267;-56
2021/09/16 12:24:28;;;;;;;19.35;12.73;;;;;;;;;;5055263;28;20059;-57
2021/09/16 12:26:55;;;;;;;17.63;13.68;;;;;;;;;;5067404;28;21333;-57
2021/09/16 12:29:26;;;;;;;22.30;15.20;;;;;;;;;;5056571;28;20092;-56
2021/09/16 12:32:00;;;;;;;17.58;12.93;;;;;;;;;;5056401;28;20055;-57
2021/09/16 12:34:26;;;;;;;;;;;;;;;;;;5057368;28;20049;-57
2021/09/16 12:36:54;;;;;;;18.73;12.55;;;;;;;;;;5056661;28;20631;-57
2021/09/16 12:39:22;;;;;;;17.60;12.85;;;;;;;;;;5054878;28;20036;-56
2021/09/16 12:41:51;;;;;;;16.70;13.07;;;;;;;;;;5054585;28;20088;-56
2021/09/16 12:44:19;;;;;;;17.45;13.18;;;;;;;;;;5056190;28;20072;-57
2021/09/16 12:46:47;;;;;;;23.80;14.32;;;;;;;;;;5058402;28;20041;-57
2021/09/16 12:49:30;;;;;;;16.42;12.40;;;;;;;;;;5062947;28;20048;-58
2021/09/16 12:52:23;;;;;;;22.27;13.73;;;;;;;;;;5063811;28;20074;-57
2021/09/16 12:54:54;;;;;;;22.58;13.65;;;;;;;;;;5052285;28;20052;-56
2021/09/16 12:57:21;;;;;;;20.75;14.35;;;;;;;;;;5054655;28;20041;-57
2021/09/16 12:59:52;;;;;;;19.67;13.80;;;;;;;;;;5054235;28;20509;-57
2021/09/16 13:02:20;;;;;;;24.15;15.65;;;;;;;;;;5057053;28;20077;-57
2021/09/16 13:04:58;;;;;;;20.35;15.68;;;;;;;;;;5057919;28;20128;-57
2021/09/16 13:07:25;;;;;;;18.90;14.35;;;;;;;;;;5056735;28;20142;-57
2021/09/16 13:10:10;;;;;;;25.02;14.65;;;;;;;;;;5056738;28;20052;-56
2021/09/16 13:12:38;;;;;;;22.67;15.60;;;;;;;;;;5056535;28;20119;-57
2021/09/16 13:15:05;;;;;;;23.92;16.55;;;;;;;;;;5052516;28;20041;-56
2021/09/16 13:17:31;;;;;;;37.85;16.42;;;;;;;;;;5056017;28;20053;-55
2021/09/16 13:19:58;;;;;;;29.83;17.02;;;;;;;;;;5056349;28;20099;-55
2021/09/16 13:22:25;;;;;;;29.70;17.52;;;;;;;;;;5056752;28;20087;-55
2021/09/16 13:24:54;;;;;;;33.22;18.17;;;;;;;;;;5056420;28;20128;-55
2021/09/16 13:27:21;;;;;;;31.17;19.05;;;;;;;;;;5054556;28;20079;-56
2021/09/16 13:29:47;;;;;;;32.42;19.77;;;;;;;;;;5053517;28;20056;-56
2021/09/16 13:32:14;;;;;;;35.13;20.27;;;;;;;;;;5056120;28;20469;-56
2021/09/16 13:34:41;;;;;;;31.88;19.20;;;;;;;;;;5056222;28;20057;-56
2021/09/16 13:37:07;;;;;;;40.50;19.65;;;;;;;;;;5056504;28;20041;-56
2021/09/16 13:39:34;;;;;;;44.30;21.75;;;;;;;;;;5056229;28;20406;-58
2021/09/16 13:42:01;;;;;;;33.40;21.38;;;;;;;;;;5052092;28;20084;-59
2021/09/16 13:44:28;;;;;;;34.80;21.85;;;;;;;;;;5059599;28;20055;-57
2021/09/16 13:46:54;;;;;;;36.97;19.20;;;;;;;;;;5059729;28;20056;-57
2021/09/16 13:49:21;;;;;;;38.42;20.75;;;;;;;;;;5059648;28;20077;-56
2021/09/16 13:51:47;;;;;;;22.42;12.68;;;;;;;;;;5060117;28;20044;-58
2021/09/16 13:54:14;;;;;;;23.17;14.05;;;;;;;;;;5056782;28;20043;-57
2021/09/16 13:56:40;;;;;;;20.27;12.27;;;;;;;;;;5057196;28;20049;-58
2021/09/16 13:59:07;;;;;;;18.23;11.00;;;;;;;;;;5060345;28;20041;-58
2021/09/16 14:01:33;;;;;;;16.98;10.68;;;;;;;;;;5065009;28;20048;-57
2021/09/16 14:04:00;;;;;;;16.05;9.70;;;;;;;;;;5067705;28;20132;-57
2021/09/16 14:06:28;;;;;;;19.55;10.65;;;;;;;;;;5058463;28;20048;-57
2021/09/16 14:08:54;;;;;;;18.55;10.85;;;;;;;;;;5056376;28;20068;-57
2021/09/16 14:11:21;;;;;;;16.50;10.32;;;;;;;;;;5070569;28;20179;-57
2021/09/16 14:13:47;;;;;;;13.85;9.48;;;;;;;;;;5061296;28;20045;-56
2021/09/16 14:16:13;;;;;;;18.38;12.20;;;;;;;;;;5059644;28;20049;-57
2021/09/16 14:18:40;;;;;;;17.40;10.98;;;;;;;;;;5059255;28;20102;-57
2021/09/16 14:21:08;;;;;;;16.60;11.57;;;;;;;;;;5055246;28;20110;-57